Peixe Azul — CUBF5 — position and weather

sailwx.info

Track history (hours):
 
Tides and Currents Weather Stations Pressure Air Temp Water Temp Dewpoint Dewpoint Depression Visibility Wind Speed Wind Dir Waves Ship Positions

Peixe Azul

Last reported at 2018-Jun-20 22:04 UTC. Time now 2018-Jun-24 16:22 UTC.
Position N 36°56' W 008°07'.

Length 23 m.

Type: Fishing. MMSI: 263406560.

Date/timePositionNaut miles runAvg speedWind from/ knotsBaromVisibWave heightAir tempDewpointWater temp
2018-Jun-20 22:04N 36°56' W 008°07'0 8.7
2018-Jun-20 22:00N 36°56' W 008°07'1 1.7
2018-Jun-20 21:29N 36°56' W 008°09'4 7.5
2018-Jun-20 21:00N 36°59' W 008°07'5 0.1
2018-Jun-19 08:21N 37°03' W 008°12'3 9.8
2018-Jun-19 08:00N 37°02' W 008°16'4 8.0
2018-Jun-19 07:30N 37°01' W 008°21'0 0.1
2018-Jun-19 07:00N 37°01' W 008°21'0 0.1
2018-Jun-19 06:30N 37°01' W 008°21'0 0.8
2018-Jun-19 06:00N 37°01' W 008°20'0 0.7
2018-Jun-19 05:30N 37°01' W 008°20'0 1.0
2018-Jun-19 05:00N 37°01' W 008°19'3 5.2
2018-Jun-19 04:30N 37°02' W 008°22'3 5.5
2018-Jun-19 04:00N 37°04' W 008°25'2 4.7
2018-Jun-19 03:30N 37°02' W 008°23'4 8.7
2018-Jun-19 03:00N 37°03' W 008°17'6 0.3
2018-Jun-18 06:38N 37°02' W 008°10'1 8.7
2018-Jun-18 06:30N 37°02' W 008°11'4 7.1
2018-Jun-18 06:00N 37°00' W 008°15'3 5.5
2018-Jun-18 05:30N 37°01' W 008°18'3 5.3
2018-Jun-18 05:00N 37°00' W 008°21'2 4.4
2018-Jun-18 04:30N 37°02' W 008°23'3 5.2
2018-Jun-18 04:00N 37°01' W 008°20'5 9.6
2018-Jun-18 03:30N 37°01' W 008°14'3 5.7
2018-Jun-18 03:00N 37°02' W 008°17'4 7.2
2018-Jun-18 02:30N 36°58' W 008°16'4 7.4
2018-Jun-18 02:00N 36°55' W 008°14'4 7.4
2018-Jun-18 01:29N 36°53' W 008°09'3 7.2
2018-Jun-18 01:00N 36°56' W 008°11'4 7.7
2018-Jun-18 00:30N 36°59' W 008°14'3 6.0
2018-Jun-17 23:59N 37°01' W 008°11'  
2018-Jun-15 07:21N 37°02' W 008°10'2 6.4
2018-Jun-15 07:01N 37°01' W 008°13'4 7.0
2018-Jun-15 06:30N 37°02' W 008°17'4 7.5
2018-Jun-15 06:00N 37°02' W 008°22'4 8.5
2018-Jun-15 05:31N 37°04' W 008°26'2 4.2
2018-Jun-15 05:00N 37°04' W 008°29'4 8.9
2018-Jun-15 04:31N 37°00' W 008°27'4 7.1
2018-Jun-15 04:00N 37°00' W 008°22'4 8.4
2018-Jun-15 03:31N 37°02' W 008°18'5 9.2
2018-Jun-15 03:01N 37°03' W 008°12'1 0.6
2018-Jun-15 01:19N 37°03' W 008°11'3 9.1
2018-Jun-15 01:01N 37°02' W 008°14'4 7.8
2018-Jun-15 00:30N 37°00' W 008°19'0 0.9
2018-Jun-15 00:01N 37°01' W 008°19'0 0.5
2018-Jun-14 23:31N 37°01' W 008°19'0 0.1
2018-Jun-14 23:01N 37°01' W 008°19'2 4.2
2018-Jun-14 22:31N 37°01' W 008°16'3 5.9
2018-Jun-14 22:00N 37°01' W 008°13'2 0.2
2018-Jun-14 07:42N 36°59' W 008°10'0 0.2
2018-Jun-14 07:30N 36°59' W 008°10'0 0.1
2018-Jun-14 07:00N 36°59' W 008°10'0 0.1
2018-Jun-14 06:30N 36°59' W 008°10'0 0.2
2018-Jun-14 05:57N 36°60' W 008°10'1 0.0
2018-Jun-12 07:02N 37°00' W 008°11'0 0.4
2018-Jun-12 06:58N 37°00' W 008°11'0 0.5
2018-Jun-12 06:28N 37°01' W 008°11'0 0.1
2018-Jun-12 05:52N 37°01' W 008°11'0 0.2
2018-Jun-12 05:24N 37°01' W 008°11'2 6.2
2018-Jun-12 05:00N 36°58' W 008°10'1 0.5
2018-Jun-12 02:58N 36°57' W 008°10'2 3.6
2018-Jun-12 02:30N 36°59' W 008°10'2 3.5
2018-Jun-12 02:00N 36°60' W 008°08'4 0.2
2018-Jun-11 07:17N 37°01' W 008°13'1 4.5
2018-Jun-11 07:00N 36°60' W 008°14'0 0.4
2018-Jun-11 06:30N 36°60' W 008°14'0 0.1
2018-Jun-11 06:01N 36°60' W 008°14'0 0.2
2018-Jun-11 05:31N 36°60' W 008°14'1 1.6
2018-Jun-11 05:00N 36°60' W 008°13'2 2.9
2018-Jun-11 04:20N 37°01' W 008°12'1 2.0
2018-Jun-11 03:59N 37°01' W 008°13'1 2.0
2018-Jun-11 03:30N 37°02' W 008°14'1 2.9
2018-Jun-11 03:01N 37°01' W 008°14'0 0.4
2018-Jun-11 02:31N 37°01' W 008°15'  
Track history (hours):
 
Tides and Currents Weather Stations Pressure Air Temp Water Temp Dewpoint Dewpoint Depression Visibility Wind Speed Wind Dir Waves Ship Positions

Peixe Azul

Last reported at 2018-Jun-20 22:04 UTC. Time now 2018-Jun-24 16:22 UTC.
Position N 36°56' W 008°07'.

Length 23 m.

Type: Fishing. MMSI: 263406560.

Date/timePositionNaut miles runAvg speedWind from/ knotsBaromVisibWave heightAir tempDewpointWater temp
2018-Jun-20 22:04N 36°56' W 008°07'0 8.7
2018-Jun-20 22:00N 36°56' W 008°07'1 1.7
2018-Jun-20 21:29N 36°56' W 008°09'4 7.5
2018-Jun-20 21:00N 36°59' W 008°07'5 0.1
2018-Jun-19 08:21N 37°03' W 008°12'3 9.8
2018-Jun-19 08:00N 37°02' W 008°16'4 8.0
2018-Jun-19 07:30N 37°01' W 008°21'0 0.1
2018-Jun-19 07:00N 37°01' W 008°21'0 0.1
2018-Jun-19 06:30N 37°01' W 008°21'0 0.8
2018-Jun-19 06:00N 37°01' W 008°20'0 0.7
2018-Jun-19 05:30N 37°01' W 008°20'0 1.0
2018-Jun-19 05:00N 37°01' W 008°19'3 5.2
2018-Jun-19 04:30N 37°02' W 008°22'3 5.5
2018-Jun-19 04:00N 37°04' W 008°25'2 4.7
2018-Jun-19 03:30N 37°02' W 008°23'4 8.7
2018-Jun-19 03:00N 37°03' W 008°17'6 0.3
2018-Jun-18 06:38N 37°02' W 008°10'1 8.7
2018-Jun-18 06:30N 37°02' W 008°11'4 7.1
2018-Jun-18 06:00N 37°00' W 008°15'3 5.5
2018-Jun-18 05:30N 37°01' W 008°18'3 5.3
2018-Jun-18 05:00N 37°00' W 008°21'2 4.4
2018-Jun-18 04:30N 37°02' W 008°23'3 5.2
2018-Jun-18 04:00N 37°01' W 008°20'5 9.6
2018-Jun-18 03:30N 37°01' W 008°14'3 5.7
2018-Jun-18 03:00N 37°02' W 008°17'4 7.2
2018-Jun-18 02:30N 36°58' W 008°16'4 7.4
2018-Jun-18 02:00N 36°55' W 008°14'4 7.4
2018-Jun-18 01:29N 36°53' W 008°09'3 7.2
2018-Jun-18 01:00N 36°56' W 008°11'4 7.7
2018-Jun-18 00:30N 36°59' W 008°14'3 6.0
2018-Jun-17 23:59N 37°01' W 008°11'  
2018-Jun-15 07:21N 37°02' W 008°10'2 6.4
2018-Jun-15 07:01N 37°01' W 008°13'4 7.0
2018-Jun-15 06:30N 37°02' W 008°17'4 7.5
2018-Jun-15 06:00N 37°02' W 008°22'4 8.5
2018-Jun-15 05:31N 37°04' W 008°26'2 4.2
2018-Jun-15 05:00N 37°04' W 008°29'4 8.9
2018-Jun-15 04:31N 37°00' W 008°27'4 7.1
2018-Jun-15 04:00N 37°00' W 008°22'4 8.4
2018-Jun-15 03:31N 37°02' W 008°18'5 9.2
2018-Jun-15 03:01N 37°03' W 008°12'1 0.6
2018-Jun-15 01:19N 37°03' W 008°11'3 9.1
2018-Jun-15 01:01N 37°02' W 008°14'4 7.8
2018-Jun-15 00:30N 37°00' W 008°19'0 0.9
2018-Jun-15 00:01N 37°01' W 008°19'0 0.5
2018-Jun-14 23:31N 37°01' W 008°19'0 0.1
2018-Jun-14 23:01N 37°01' W 008°19'2 4.2
2018-Jun-14 22:31N 37°01' W 008°16'3 5.9
2018-Jun-14 22:00N 37°01' W 008°13'2 0.2
2018-Jun-14 07:42N 36°59' W 008°10'0 0.2
2018-Jun-14 07:30N 36°59' W 008°10'0 0.1
2018-Jun-14 07:00N 36°59' W 008°10'0 0.1
2018-Jun-14 06:30N 36°59' W 008°10'0 0.2
2018-Jun-14 05:57N 36°60' W 008°10'1 0.0
2018-Jun-12 07:02N 37°00' W 008°11'0 0.4
2018-Jun-12 06:58N 37°00' W 008°11'0 0.5
2018-Jun-12 06:28N 37°01' W 008°11'0 0.1
2018-Jun-12 05:52N 37°01' W 008°11'0 0.2
2018-Jun-12 05:24N 37°01' W 008°11'2 6.2
2018-Jun-12 05:00N 36°58' W 008°10'1 0.5
2018-Jun-12 02:58N 36°57' W 008°10'2 3.6
2018-Jun-12 02:30N 36°59' W 008°10'2 3.5
2018-Jun-12 02:00N 36°60' W 008°08'4 0.2
2018-Jun-11 07:17N 37°01' W 008°13'1 4.5
2018-Jun-11 07:00N 36°60' W 008°14'0 0.4
2018-Jun-11 06:30N 36°60' W 008°14'0 0.1
2018-Jun-11 06:01N 36°60' W 008°14'0 0.2
2018-Jun-11 05:31N 36°60' W 008°14'1 1.6
2018-Jun-11 05:00N 36°60' W 008°13'2 2.9
2018-Jun-11 04:20N 37°01' W 008°12'1 2.0
2018-Jun-11 03:59N 37°01' W 008°13'1 2.0
2018-Jun-11 03:30N 37°02' W 008°14'1 2.9
2018-Jun-11 03:01N 37°01' W 008°14'0 0.4
2018-Jun-11 02:31N 37°01' W 008°15'  

Dump ship's entire track history